Time;durP1;ratioP1;P1;durP2;ratioP2;P2;SDS_P1;SDS_P2;PMS_P1;PMS_P2;Temp;Humidity;BMP_temperature;BMP_pressure;BME280_temperature;BME280_humidity;BME280_pressure;Samples;Min_cycle;Max_cycle;Signal;HPM_P1;HPM_P2
2022/04/12 00:01:32;;;;;;;;;;;5.90;99.90;;;;;;5068854;28;20008;-75
2022/04/12 00:04:00;;;;;;;;;;;5.80;99.90;;;;;;5068504;28;19928;-75
2022/04/12 00:06:27;;;;;;;;;;;5.80;99.90;;;;;;5069808;28;20516;-75
2022/04/12 00:08:54;;;;;;;;;;;5.80;99.90;;;;;;5069840;28;19927;-75
2022/04/12 00:11:20;;;;;;;;;;;5.80;99.90;;;;;;5070419;28;20381;-75
2022/04/12 00:13:47;;;;;;;;;;;5.70;99.90;;;;;;5067113;28;19921;-75
2022/04/12 00:16:16;;;;;;;;;;;5.70;99.90;;;;;;5067850;28;20173;-75
2022/04/12 00:21:29;;;;;;;;;;;5.70;99.90;;;;;;5059910;28;19920;-75
2022/04/12 00:23:56;;;;;;;;;;;5.70;99.90;;;;;;5065181;28;20523;-75
2022/04/12 00:26:23;;;;;;;;;;;5.70;99.90;;;;;;5066319;28;20294;-75
2022/04/12 00:28:49;;;;;;;;;;;5.70;99.90;;;;;;5101180;28;19928;-75
2022/04/12 00:31:19;;;;;;;;;;;5.70;99.90;;;;;;5066326;28;20401;-75
2022/04/12 00:33:46;;;;;;;;;;;5.80;99.90;;;;;;5067272;28;20298;-75
2022/04/12 00:36:12;;;;;;;;;;;5.70;99.90;;;;;;5067787;28;19920;-75
2022/04/12 00:38:42;;;;;;;;;;;5.70;99.90;;;;;;5070310;28;19924;-75
2022/04/12 00:41:11;;;;;;;;;;;5.70;99.90;;;;;;5063366;28;19920;-75
2022/04/12 00:43:38;;;;;;;;;;;5.70;99.90;;;;;;5068604;28;20524;-75
2022/04/12 00:46:05;;;;;;;;;;;5.70;99.90;;;;;;5067695;28;19924;-75
2022/04/12 00:48:32;;;;;;;;;;;5.80;99.90;;;;;;5067600;28;19920;-75
2022/04/12 00:51:00;;;;;;;;;;;5.80;99.90;;;;;;5069621;28;19927;-74
2022/04/12 00:53:27;;;;;;;;;;;5.90;99.90;;;;;;5067397;28;19927;-74
2022/04/12 00:55:56;;;;;;;;;;;5.80;99.90;;;;;;5067629;28;20387;-74
2022/04/12 00:58:24;;;;;;;;;;;5.80;99.90;;;;;;5064547;28;19956;-74
2022/04/12 01:00:50;;;;;;;;;;;5.80;99.90;;;;;;5065948;28;20015;-74
2022/04/12 01:03:17;;;;;;;;;;;5.80;99.90;;;;;;5070895;28;19924;-75
2022/04/12 01:05:47;;;;;;;;;;;5.70;99.90;;;;;;5066526;28;19955;-74
2022/04/12 01:08:13;;;;;;;;;;;5.70;99.90;;;;;;5065988;28;19926;-74
2022/04/12 01:10:40;;;;;;;;;;;5.70;99.90;;;;;;5067769;28;19924;-74
2022/04/12 01:13:11;;;;;;;;;;;5.70;99.90;;;;;;5068098;28;19927;-75
2022/04/12 01:15:37;;;;;;;;;;;5.70;99.90;;;;;;5063427;28;19967;-75
2022/04/12 01:18:04;;;;;;;;;;;5.70;99.90;;;;;;5068954;28;20482;-75
2022/04/12 01:20:31;;;;;;;;;;;5.60;99.90;;;;;;5056515;28;19932;-75
2022/04/12 01:23:10;;;;;;;;;;;5.70;99.90;;;;;;5067019;28;19920;-75
2022/04/12 01:25:37;;;;;;;;;;;5.70;99.90;;;;;;5060299;28;19927;-76
2022/04/12 01:28:04;;;;;;;;;;;5.60;99.90;;;;;;5064474;28;19920;-75
2022/04/12 01:30:31;;;;;;;;;;;5.60;99.90;;;;;;5066271;28;19927;-75
2022/04/12 01:32:57;;;;;;;;;;;5.60;99.90;;;;;;5097175;28;20557;-75
2022/04/12 01:35:24;;;;;;;;;;;5.70;99.90;;;;;;5065265;28;19935;-75
2022/04/12 01:37:51;;;;;;;;;;;5.70;99.90;;;;;;5068155;28;19926;-74
2022/04/12 01:40:17;;;;;;;;;;;5.70;99.90;;;;;;5067250;28;20015;-75
2022/04/12 01:42:44;;;;;;;;;;;5.70;99.90;;;;;;5065546;28;19965;-74
2022/04/12 01:45:11;;;;;;;;;;;5.70;99.90;;;;;;5063634;28;19931;-75
2022/04/12 01:47:37;;;;;;;;;;;5.70;99.90;;;;;;5065715;28;20379;-76
2022/04/12 01:50:07;;;;;;;;;;;5.70;99.90;;;;;;5068311;28;20376;-75
2022/04/12 01:52:34;;;;;;;;;;;5.70;99.90;;;;;;5068687;28;19920;-75
2022/04/12 01:55:04;;;;;;;;;;;5.60;99.90;;;;;;5065849;28;20003;-74
2022/04/12 01:57:30;;;;;;;;;;;5.60;99.90;;;;;;5102329;28;19920;-74
2022/04/12 02:00:06;;;;;;;;;;;5.50;99.90;;;;;;5066569;28;19966;-74
2022/04/12 02:02:32;;;;;;;;;;;5.50;99.90;;;;;;5066109;28;20611;-75
2022/04/12 02:04:59;;;;;;;;;;;5.50;99.90;;;;;;5063960;28;19925;-75
2022/04/12 02:07:26;;;;;;;;;;;5.40;99.90;;;;;;5072648;28;19959;-75
2022/04/12 02:09:53;;;;;;;;;;;5.40;99.90;;;;;;5068532;28;20564;-75
2022/04/12 02:12:20;;;;;;;;;;;5.40;99.90;;;;;;5067452;28;20271;-74
2022/04/12 02:14:46;;;;;;;;;;;5.30;99.90;;;;;;5063923;28;19924;-74
2022/04/12 02:17:13;;;;;;;;;;;5.30;99.90;;;;;;5065392;28;19936;-74
2022/04/12 02:19:39;;;;;;;;;;;5.30;99.90;;;;;;5068625;28;19935;-74
2022/04/12 02:22:07;;;;;;;;;;;5.30;99.90;;;;;;5073651;28;19920;-75
2022/04/12 02:24:34;;;;;;;;;;;5.30;99.90;;;;;;5066707;28;19926;-75
2022/04/12 02:27:01;;;;;;;;;;;5.30;99.90;;;;;;5064636;28;20303;-75
2022/04/12 02:29:28;;;;;;;;;;;5.30;99.90;;;;;;5067079;28;19927;-75
2022/04/12 02:31:54;;;;;;;;;;;5.20;99.90;;;;;;5065396;28;19928;-75
2022/04/12 02:34:21;;;;;;;;;;;5.20;99.90;;;;;;5070488;28;19920;-75
2022/04/12 02:36:48;;;;;;;;;;;5.20;99.90;;;;;;5069562;28;19927;-75
2022/04/12 02:39:17;;;;;;;;;;;5.20;99.90;;;;;;5071351;28;19920;-75
2022/04/12 02:41:44;;;;;;;;;;;5.10;99.90;;;;;;5068536;28;19920;-75
2022/04/12 02:44:11;;;;;;;;;;;5.10;99.90;;;;;;5066164;28;19975;-75
2022/04/12 02:46:37;;;;;;;;;;;5.00;99.90;;;;;;5065215;28;19928;-75
2022/04/12 02:49:04;;;;;;;;;;;5.00;99.90;;;;;;5068807;28;20200;-75
2022/04/12 02:51:30;;;;;;;;;;;5.00;99.90;;;;;;5069382;28;19924;-75
2022/04/12 02:54:00;;;;;;;;;;;4.90;99.90;;;;;;5070541;28;19920;-75
2022/04/12 02:56:27;;;;;;;;;;;5.00;99.90;;;;;;5064555;28;20066;-75
2022/04/12 02:58:53;;;;;;;;;;;4.90;99.90;;;;;;5070666;28;19920;-75
2022/04/12 03:01:20;;;;;;;;;;;4.90;99.90;;;;;;5071702;28;19967;-75
2022/04/12 03:03:47;;;;;;;;;;;4.90;99.90;;;;;;5070609;28;19924;-75
2022/04/12 03:06:16;;;;;;;;;;;4.90;99.90;;;;;;5070414;28;20204;-75
2022/04/12 03:08:43;;;;;;;;;;;4.80;99.90;;;;;;5067711;28;19926;-75
2022/04/12 03:11:09;;;;;;;;;;;4.80;99.90;;;;;;5069656;28;19927;-75
2022/04/12 03:13:37;;;;;;;;;;;4.80;99.90;;;;;;5071245;28;19974;-75
2022/04/12 03:16:04;;;;;;;;;;;4.80;99.90;;;;;;5068303;28;19920;-75
2022/04/12 03:18:30;;;;;;;;;;;4.80;99.90;;;;;;5068729;28;19921;-75
2022/04/12 03:20:57;;;;;;;;;;;4.80;99.90;;;;;;5069336;28;20015;-75
2022/04/12 03:23:24;;;;;;;;;;;4.70;99.90;;;;;;5067057;28;19947;-75
2022/04/12 03:25:51;;;;;;;;;;;4.70;99.90;;;;;;5069767;28;19924;-75
2022/04/12 03:28:17;;;;;;;;;;;4.70;99.90;;;;;;5065257;28;19931;-75
2022/04/12 03:30:44;;;;;;;;;;;4.70;99.90;;;;;;5066039;28;20026;-75
2022/04/12 03:33:10;;;;;;;;;;;4.70;99.90;;;;;;5066035;28;19930;-75
2022/04/12 03:35:37;;;;;;;;;;;4.70;99.90;;;;;;5068755;28;19921;-75
2022/04/12 03:38:04;;;;;;;;;;;4.60;99.90;;;;;;5067780;28;20411;-76
2022/04/12 03:40:31;;;;;;;;;;;4.50;99.90;;;;;;5065622;28;20383;-75
2022/04/12 03:43:02;;;;;;;;;;;4.50;99.90;;;;;;5068976;28;19967;-75
2022/04/12 03:45:29;;;;;;;;;;;4.60;99.90;;;;;;5070530;28;19930;-75
2022/04/12 03:47:58;;;;;;;;;;;4.60;99.90;;;;;;5069464;28;20315;-75
2022/04/12 03:50:25;;;;;;;;;;;4.60;99.90;;;;;;5063037;28;20314;-75
2022/04/12 03:52:52;;;;;;;;;;;4.60;99.90;;;;;;5101202;27;19928;-75
2022/04/12 03:55:30;;;;;;;;;;;4.60;99.90;;;;;;5070663;28;19927;-76
2022/04/12 03:57:58;;;;;;;;;;;4.50;99.90;;;;;;5070185;28;19971;-76
2022/04/12 04:00:25;;;;;;;;;;;4.60;99.90;;;;;;5069209;28;20036;-75
2022/04/12 04:02:53;;;;;;;;;;;4.60;99.90;;;;;;5070512;28;19942;-75
2022/04/12 04:05:20;;;;;;;;;;;4.70;99.90;;;;;;5068766;28;20014;-75
2022/04/12 04:07:47;;;;;;;;;;;4.70;99.90;;;;;;5060967;28;19927;-75
2022/04/12 04:10:13;;;;;;;;;;;4.70;99.90;;;;;;5065580;28;19920;-75
2022/04/12 04:12:40;;;;;;;;;;;4.70;99.90;;;;;;5064553;28;19924;-75
2022/04/12 04:15:11;;;;;;;;;;;4.60;99.90;;;;;;5063864;28;20182;-75
2022/04/12 04:17:39;;;;;;;;;;;4.60;99.90;;;;;;5060526;28;19921;-75
2022/04/12 04:20:06;;;;;;;;;;;4.50;99.90;;;;;;5053563;28;19928;-76
2022/04/12 04:22:33;;;;;;;;;;;4.50;99.90;;;;;;5065704;28;20417;-75
2022/04/12 04:24:59;;;;;;;;;;;4.40;99.90;;;;;;5062950;28;19924;-75
2022/04/12 04:27:32;;;;;;;;;;;4.40;99.90;;;;;;5063455;28;19920;-75
2022/04/12 04:30:04;;;;;;;;;;;4.40;99.90;;;;;;5065357;28;19932;-77
2022/04/12 04:32:31;;;;;;;;;;;4.30;99.90;;;;;;5061594;28;19924;-75
2022/04/12 04:35:01;;;;;;;;;;;4.30;99.90;;;;;;5064554;28;19936;-74
2022/04/12 04:37:28;;;;;;;;;;;4.30;99.90;;;;;;5061377;28;19986;-75
2022/04/12 04:39:54;;;;;;;;;;;4.20;99.90;;;;;;5064417;28;19981;-75
2022/04/12 04:42:22;;;;;;;;;;;4.20;99.90;;;;;;5063562;28;20337;-75
2022/04/12 04:44:49;;;;;;;;;;;4.10;99.90;;;;;;5067657;28;20299;-75
2022/04/12 04:47:16;;;;;;;;;;;4.20;99.90;;;;;;5066036;28;19920;-76
2022/04/12 04:49:42;;;;;;;;;;;4.30;99.90;;;;;;5067441;28;19924;-75
2022/04/12 04:52:09;;;;;;;;;;;4.30;99.90;;;;;;5065932;28;19931;-75
2022/04/12 04:54:35;;;;;;;;;;;4.40;99.90;;;;;;5063176;28;20011;-76
2022/04/12 04:57:02;;;;;;;;;;;4.40;99.90;;;;;;5065068;28;20128;-76
2022/04/12 04:59:29;;;;;;;;;;;4.50;99.90;;;;;;5063833;28;19951;-75
2022/04/12 05:01:56;;;;;;;;;;;4.60;99.90;;;;;;5064763;28;19926;-75
2022/04/12 05:04:22;;;;;;;;;;;4.60;99.90;;;;;;5064445;28;19928;-75
2022/04/12 05:06:52;;;;;;;;;;;4.70;99.90;;;;;;5061630;28;19926;-75
2022/04/12 05:09:18;;;;;;;;;;;4.80;99.90;;;;;;5067065;28;20347;-75
2022/04/12 05:11:45;;;;;;;;;;;4.80;99.90;;;;;;5066010;28;19921;-76
2022/04/12 05:14:11;;;;;;;;;;;4.90;99.90;;;;;;5061462;28;19928;-75
2022/04/12 05:16:42;;;;;;;;;;;4.90;99.90;;;;;;5057213;28;20132;-75
2022/04/12 05:19:09;;;;;;;;;;;5.00;99.90;;;;;;5063629;28;19928;-75
2022/04/12 05:21:38;;;;;;;;;;;5.00;99.90;;;;;;5060058;28;19924;-75
2022/04/12 05:24:05;;;;;;;;;;;5.00;99.90;;;;;;5063241;28;19932;-75
2022/04/12 05:26:32;;;;;;;;;;;5.10;99.90;;;;;;5063934;28;20399;-75
2022/04/12 05:28:59;;;;;;;;;;;5.10;99.90;;;;;;5065096;28;19924;-75
2022/04/12 05:31:25;;;;;;;;;;;5.20;99.90;;;;;;5057976;28;20412;-75
2022/04/12 05:33:58;;;;;;;;;;;5.20;99.90;;;;;;5091556;28;20338;-75
2022/04/12 05:36:25;;;;;;;;;;;5.30;99.90;;;;;;5061709;28;19940;-75
2022/04/12 05:38:51;;;;;;;;;;;5.30;99.90;;;;;;5073642;28;19929;-75
2022/04/12 05:41:18;;;;;;;;;;;5.30;99.90;;;;;;5065697;28;19925;-75
2022/04/12 05:43:45;;;;;;;;;;;5.40;99.90;;;;;;5066663;28;19933;-75
2022/04/12 05:46:12;;;;;;;;;;;5.50;99.90;;;;;;5062697;28;19928;-75
2022/04/12 05:48:41;;;;;;;;;;;5.60;99.90;;;;;;5062400;28;20039;-75
2022/04/12 05:51:08;;;;;;;;;;;5.70;99.90;;;;;;5062545;28;20281;-75
2022/04/12 05:53:35;;;;;;;;;;;5.80;99.90;;;;;;5056269;28;20413;-74
2022/04/12 05:56:02;;;;;;;;;;;5.90;99.90;;;;;;5062870;28;19924;-74
2022/04/12 05:58:40;;;;;;;;;;;6.00;99.90;;;;;;5064253;28;19946;-74
2022/04/12 06:01:09;;;;;;;;;;;6.20;99.90;;;;;;5061375;28;19967;-74
2022/04/12 06:03:36;;;;;;;;;;;6.40;99.90;;;;;;5065098;28;19924;-74
2022/04/12 06:06:03;;;;;;;;;;;6.80;99.90;;;;;;5065025;28;19927;-74
2022/04/12 06:08:30;;;;;;;;;;;7.50;99.90;;;;;;5068405;28;19934;-74
2022/04/12 06:10:56;;;;;;;;;;;9.00;99.90;;;;;;5061754;28;19920;-74
2022/04/12 06:13:23;;;;;;;;;;;10.40;99.90;;;;;;5065627;28;20611;-74
2022/04/12 06:15:49;;;;;;;;;;;11.50;99.90;;;;;;5068401;28;19986;-74
2022/04/12 06:18:16;;;;;;;;;;;12.40;99.90;;;;;;5067865;28;19978;-74
2022/04/12 06:20:43;;;;;;;;;;;13.10;99.90;;;;;;5060747;28;19931;-74
2022/04/12 06:23:09;;;;;;;;;;;13.70;99.90;;;;;;5062550;28;19924;-74
2022/04/12 06:25:36;;;;;;;;;;;14.00;99.90;;;;;;5067888;28;19928;-74
2022/04/12 06:28:03;;;;;;;;;;;14.10;99.90;;;;;;5062608;28;19920;-74
2022/04/12 06:30:30;;;;;;;;;;;14.20;99.90;;;;;;5059995;28;19924;-74
2022/04/12 06:32:57;;;;;;;;;;;14.20;99.90;;;;;;5059914;28;19924;-74
2022/04/12 06:35:23;;;;;;;;;;;14.30;99.90;;;;;;5071006;28;19927;-74
2022/04/12 06:37:53;;;;;;;;;;;14.80;99.90;;;;;;5065612;28;19926;-75
2022/04/12 06:40:21;;;;;;;;;;;15.20;99.90;;;;;;5065837;28;20282;-75
2022/04/12 06:42:48;;;;;;;;;;;15.50;99.90;;;;;;5062829;28;19951;-77
2022/04/12 06:45:15;;;;;;;;;;;15.80;99.90;;;;;;5066429;28;19920;-74
2022/04/12 06:47:42;;;;;;;;;;;16.00;99.90;;;;;;5067081;28;19935;-74
2022/04/12 06:50:10;;;;;;;;;;;16.10;99.90;;;;;;5065266;28;20398;-74
2022/04/12 06:52:37;;;;;;;;;;;15.60;99.90;;;;;;5065733;28;19921;-73
2022/04/12 06:55:04;;;;;;;;;;;15.10;99.90;;;;;;5066347;28;19928;-73
2022/04/12 06:57:35;;;;;;;;;;;15.10;99.90;;;;;;5071675;28;20014;-74
2022/04/12 07:00:03;;;;;;;;;;;14.20;99.90;;;;;;5063904;28;19924;-73
2022/04/12 07:02:30;;;;;;;;;;;13.80;99.90;;;;;;5062889;28;19950;-74
2022/04/12 07:04:57;;;;;;;;;;;14.40;99.90;;;;;;5063962;28;19927;-73
2022/04/12 07:07:24;;;;;;;;;;;15.10;99.90;;;;;;5069144;28;20015;-74
2022/04/12 07:09:51;;;;;;;;;;;15.90;99.90;;;;;;5073579;28;19920;-74
2022/04/12 07:12:17;;;;;;;;;;;16.10;99.90;;;;;;5063025;28;19920;-74
2022/04/12 07:14:44;;;;;;;;;;;16.10;99.90;;;;;;5059906;28;20296;-74
2022/04/12 07:17:14;;;;;;;;;;;16.60;99.90;;;;;;5066416;28;19995;-74
2022/04/12 07:19:40;;;;;;;;;;;17.30;99.90;;;;;;5062616;28;20315;-74
2022/04/12 07:22:09;;;;;;;;;;;16.60;99.60;;;;;;5062501;28;20449;-74
2022/04/12 07:24:36;;;;;;;;;;;16.40;99.90;;;;;;5065761;28;19928;-74
2022/04/12 07:27:03;;;;;;;;;;;16.70;99.90;;;;;;5065140;28;19924;-74
2022/04/12 07:29:30;;;;;;;;;;;16.80;99.80;;;;;;5065615;28;19943;-74
2022/04/12 07:31:57;;;;;;;;;;;16.60;99.60;;;;;;5066945;28;19920;-74
2022/04/12 07:34:26;;;;;;;;;;;16.70;99.80;;;;;;5060467;28;19920;-74
2022/04/12 07:36:56;;;;;;;;;;;17.10;99.60;;;;;;5056471;28;20601;-75
2022/04/12 07:39:23;;;;;;;;;;;17.60;99.90;;;;;;5064788;28;19924;-75
2022/04/12 07:41:50;;;;;;;;;;;18.00;98.60;;;;;;5069968;28;20457;-74
2022/04/12 07:44:17;;;;;;;;;;;17.90;98.70;;;;;;5063848;28;19928;-76
2022/04/12 07:46:44;;;;;;;;;;;17.70;98.70;;;;;;5069843;28;19920;-76
2022/04/12 07:49:11;;;;;;;;;;;17.90;98.30;;;;;;5062966;28;19935;-76
2022/04/12 07:51:38;;;;;;;;;;;18.10;98.30;;;;;;5064973;28;19926;-76
2022/04/12 07:54:06;;;;;;;;;;;18.30;98.10;;;;;;5062474;28;19924;-76
2022/04/12 07:56:36;;;;;;;;;;;18.40;98.80;;;;;;5067595;28;19982;-76
2022/04/12 07:59:03;;;;;;;;;;;18.00;99.90;;;;;;5062245;28;20024;-76
2022/04/12 08:01:30;;;;;;;;;;;18.20;99.40;;;;;;5066315;28;19974;-76
2022/04/12 08:03:57;;;;;;;;;;;18.70;98.50;;;;;;5066119;28;19920;-76
2022/04/12 08:06:26;;;;;;;;;;;20.00;97.00;;;;;;5063837;28;19924;-76
2022/04/12 08:08:52;;;;;;;;;;;20.00;97.30;;;;;;5079408;28;19925;-76
2022/04/12 08:11:19;;;;;;;;;;;20.10;96.30;;;;;;5068216;28;19920;-76
2022/04/12 08:13:46;;;;;;;;;;;19.60;96.40;;;;;;5059534;28;19932;-80
2022/04/12 08:16:15;;;;;;;;;;;19.60;96.10;;;;;;5073286;28;20314;-76
2022/04/12 08:18:45;;;;;;;;;;;19.40;96.40;;;;;;5064768;28;20024;-76
2022/04/12 08:21:11;;;;;;;;;;;19.60;96.30;;;;;;5062740;28;19968;-76
2022/04/12 08:23:39;;;;;;;;;;;19.30;95.50;;;;;;5062348;28;20023;-76
2022/04/12 08:26:07;;;;;;;;;;;19.30;95.80;;;;;;5063175;28;19969;-76
2022/04/12 08:28:36;;;;;;;;;;;19.20;95.80;;;;;;5065975;28;19920;-76
2022/04/12 08:31:03;;;;;;;;;;;18.70;96.10;;;;;;5095540;28;19920;-73
2022/04/12 08:33:32;;;;;;;;;;;18.50;96.30;;;;;;5062575;28;19924;-74
2022/04/12 08:35:59;;;;;;;;;;;18.80;95.80;;;;;;5065797;28;20410;-74
2022/04/12 08:38:25;;;;;;;;;;;19.40;96.00;;;;;;5057724;28;20394;-73
2022/04/12 08:40:53;;;;;;;;;;;19.60;95.50;;;;;;5063197;28;20019;-73
2022/04/12 08:43:21;;;;;;;;;;;18.90;95.00;;;;;;5060715;28;20268;-73
2022/04/12 08:45:48;;;;;;;;;;;18.70;95.70;;;;;;5063307;28;20410;-74
2022/04/12 08:48:15;;;;;;;;;;;19.20;95.40;;;;;;5058022;28;19924;-74
2022/04/12 08:50:43;;;;;;;;;;;19.30;96.00;;;;;;5055187;28;20383;-73
2022/04/12 08:53:10;;;;;;;;;;;19.70;95.60;;;;;;5064425;28;20418;-74
2022/04/12 08:55:39;;;;;;;;;;;19.90;96.20;;;;;;5061186;28;19928;-74
2022/04/12 08:58:05;;;;;;;;;;;19.90;94.70;;;;;;5063018;28;19920;-74
2022/04/12 09:00:32;;;;;;;;;;;19.80;94.80;;;;;;5065755;28;19924;-74
2022/04/12 09:02:59;;;;;;;;;;;20.00;94.70;;;;;;5062029;28;20298;-74
2022/04/12 09:05:27;;;;;;;;;;;20.10;95.10;;;;;;5060081;28;19955;-74
2022/04/12 09:07:54;;;;;;;;;;;20.80;94.80;;;;;;5057766;28;20437;-74
2022/04/12 09:10:31;;;;;;;;;;;21.10;94.80;;;;;;5061908;28;19959;-74
2022/04/12 09:13:08;;;;;;;;;;;21.00;94.10;;;;;;5064116;28;19920;-75
2022/04/12 09:15:40;;;;;;;;;;;21.20;94.70;;;;;;5063782;28;19928;-74
2022/04/12 09:18:35;;;;;;;;;;;21.60;94.00;;;;;;5086173;28;19970;-74
2022/04/12 09:21:14;;;;;;;;;;;21.80;93.60;;;;;;5059143;28;20287;-74
2022/04/12 09:23:52;;;;;;;;;;;21.70;94.00;;;;;;5061481;28;19920;-74
2022/04/12 09:26:26;;;;;;;;;;;21.40;93.20;;;;;;5060464;28;20020;-74
2022/04/12 09:28:54;;;;;;;;;;;21.50;93.50;;;;;;5060775;28;20310;-74
2022/04/12 09:31:21;;;;;;;;;;;21.90;93.60;;;;;;5058875;28;20279;-75
2022/04/12 09:33:49;;;;;;;;;;;22.20;93.90;;;;;;5058548;28;19932;-75
2022/04/12 09:36:16;;;;;;;;;;;21.80;93.80;;;;;;5059100;28;19928;-75
2022/04/12 09:38:43;;;;;;;;;;;21.80;94.20;;;;;;5063707;28;19968;-74
2022/04/12 09:41:30;;;;;;;;;;;21.50;94.10;;;;;;5056248;28;20566;-74
2022/04/12 09:43:57;;;;;;;;;;;21.30;93.50;;;;;;5056960;28;19925;-74
2022/04/12 09:46:24;;;;;;;;;;;20.70;93.40;;;;;;5066479;28;19943;-74
2022/04/12 09:48:52;;;;;;;;;;;21.00;93.70;;;;;;5061778;28;19925;-75
2022/04/12 09:51:20;;;;;;;;;;;21.60;93.20;;;;;;5065620;28;19963;-76
2022/04/12 09:53:47;;;;;;;;;;;21.40;93.50;;;;;;5060358;28;19927;-74
2022/04/12 09:56:20;;;;;;;;;;;21.70;93.60;;;;;;5061265;28;20278;-75
2022/04/12 09:58:48;;;;;;;;;;;22.40;93.80;;;;;;5068574;28;19924;-73
2022/04/12 10:01:15;;;;;;;;;;;22.20;96.90;;;;;;5059306;28;20026;-73
2022/04/12 10:03:48;;;;;;;;;;;21.50;97.40;;;;;;5068861;28;20397;-74
2022/04/12 10:06:17;;;;;;;;;;;21.60;96.20;;;;;;5063473;28;19951;-76
2022/04/12 10:08:44;;;;;;;;;;;22.50;96.30;;;;;;5064099;28;20006;-73
2022/04/12 10:11:12;;;;;;;;;;;22.40;95.10;;;;;;5072600;28;19956;-75
2022/04/12 10:13:40;;;;;;;;;;;22.60;95.50;;;;;;5065510;28;19982;-75
2022/04/12 10:16:07;;;;;;;;;;;22.70;96.30;;;;;;5060635;28;19943;-75
2022/04/12 10:18:33;;;;;;;;;;;22.70;95.90;;;;;;5069118;28;20205;-75
2022/04/12 10:21:00;;;;;;;;;;;22.90;95.30;;;;;;5067656;28;19977;-75
2022/04/12 10:23:29;;;;;;;;;;;22.80;96.70;;;;;;5065767;28;19981;-75
2022/04/12 10:25:58;;;;;;;;;;;23.00;95.80;;;;;;5065822;28;19920;-75
2022/04/12 10:28:25;;;;;;;;;;;23.20;95.70;;;;;;5066319;28;20019;-75
2022/04/12 10:31:01;;;;;;;;;;;23.10;95.00;;;;;;5065245;28;20442;-75
2022/04/12 10:33:52;;;;;;;;;;;23.50;92.10;;;;;;5060088;28;20480;-75
2022/04/12 10:36:21;;;;;;;;;;;23.10;91.90;;;;;;5058172;28;20410;-75
2022/04/12 10:38:47;;;;;;;;;;;22.90;93.00;;;;;;5063076;28;20338;-75
2022/04/12 10:41:24;;;;;;;;;;;23.50;92.10;;;;;;5066116;28;19955;-75
2022/04/12 10:43:54;;;;;;;;;;;23.30;91.40;;;;;;5064774;28;19920;-75
2022/04/12 10:46:26;;;;;;;;;;;23.20;91.90;;;;;;5068991;28;19920;-75
2022/04/12 10:48:55;;;;;;;;;;;22.80;91.90;;;;;;5064461;28;20015;-75
2022/04/12 10:51:51;;;;;;;;;;;22.50;92.50;;;;;;5061351;28;19983;-75
2022/04/12 10:54:26;;;;;;;;;;;23.00;92.80;;;;;;5053274;28;19932;-75
2022/04/12 10:57:12;;;;;;;;;;;23.20;92.60;;;;;;5061047;28;19928;-75
2022/04/12 10:59:39;;;;;;;;;;;23.00;92.00;;;;;;5063621;28;20139;-75
2022/04/12 11:02:12;;;;;;;;;;;23.20;92.30;;;;;;5064649;28;19938;-75
2022/04/12 11:04:40;;;;;;;;;;;23.10;92.40;;;;;;5061893;28;19928;-76
2022/04/12 11:07:10;;;;;;;;;;;23.10;92.00;;;;;;5067549;28;20423;-76
2022/04/12 11:09:36;;;;;;;;;;;23.20;92.10;;;;;;5066960;28;20379;-74
2022/04/12 11:12:03;;;;;;;;;;;23.60;92.20;;;;;;5066503;28;20395;-75
2022/04/12 11:14:37;;;;;;;;;;;23.50;92.30;;;;;;5065302;28;20327;-75
2022/04/12 11:17:07;;;;;;;;;;;23.80;91.90;;;;;;5063495;28;19969;-75
2022/04/12 11:19:54;;;;;;;;;;;23.90;91.80;;;;;;5066472;28;19931;-76
2022/04/12 11:22:23;;;;;;;;;;;24.10;92.20;;;;;;5065761;28;19990;-76
2022/04/12 11:25:12;;;;;;;;;;;25.10;92.10;;;;;;5055289;28;20447;-76
2022/04/12 11:27:41;;;;;;;;;;;25.50;91.60;;;;;;5062959;28;19924;-75
2022/04/12 11:30:12;;;;;;;;;;;25.10;91.80;;;;;;5065619;28;19947;-76
2022/04/12 11:32:39;;;;;;;;;;;24.80;91.60;;;;;;5060730;28;19942;-76
2022/04/12 11:35:08;;;;;;;;;;;24.90;91.50;;;;;;5066044;28;19921;-76
2022/04/12 11:37:38;;;;;;;;;;;25.40;92.10;;;;;;5064212;28;20026;-76
2022/04/12 11:40:05;;;;;;;;;;;25.10;91.30;;;;;;5070097;28;19924;-76
2022/04/12 11:42:31;;;;;;;;;;;25.10;91.30;;;;;;5070143;28;19924;-76
2022/04/12 11:44:58;;;;;;;;;;;25.40;91.40;;;;;;5068026;28;19921;-76
2022/04/12 11:47:33;;;;;;;;;;;25.40;91.60;;;;;;5069892;28;19920;-76
2022/04/12 11:50:00;;;;;;;;;;;25.70;91.60;;;;;;5067753;28;19923;-76
2022/04/12 11:52:28;;;;;;;;;;;26.70;91.80;;;;;;5066527;28;19936;-76
2022/04/12 11:54:58;;;;;;;;;;;27.00;90.80;;;;;;5068970;28;19924;-76
2022/04/12 11:57:27;;;;;;;;;;;26.60;90.30;;;;;;5068542;28;20446;-76
2022/04/12 11:59:58;;;;;;;;;;;26.50;90.30;;;;;;5070273;28;20292;-76
2022/04/12 12:02:25;;;;;;;;;;;26.60;90.90;;;;;;5066401;28;20306;-76
2022/04/12 12:04:53;;;;;;;;;;;26.70;90.40;;;;;;5068446;28;20010;-76
2022/04/12 12:07:20;;;;;;;;;;;26.90;89.60;;;;;;5061658;28;19920;-76
2022/04/12 12:09:57;;;;;;;;;;;26.80;90.20;;;;;;5068865;28;19920;-76
2022/04/12 12:12:31;;;;;;;;;;;26.70;89.90;;;;;;5061211;28;19963;-76
2022/04/12 12:15:16;;;;;;;;;;;26.70;90.30;;;;;;5069210;28;19920;-76
2022/04/12 12:17:49;;;;;;;;;;;26.70;89.90;;;;;;5065505;28;19920;-76
2022/04/12 12:20:17;;;;;;;;;;;27.00;89.90;;;;;;5057636;28;19920;-76
2022/04/12 12:22:44;;;;;;;;;;;27.40;90.40;;;;;;5068008;28;19921;-76
2022/04/12 12:25:18;;;;;;;;;;;27.00;89.10;;;;;;5068243;28;20038;-76
2022/04/12 12:27:54;;;;;;;;;;;27.20;89.50;;;;;;5062307;28;19928;-76
2022/04/12 12:30:32;;;;;;;;;;;27.50;89.00;;;;;;5060236;28;19978;-76
2022/04/12 12:32:59;;;;;;;;;;;27.90;87.90;;;;;;5067742;28;19931;-76
2022/04/12 12:35:26;;;;;;;;;;;28.00;89.70;;;;;;5067078;28;20446;-76
2022/04/12 12:38:07;;;;;;;;;;;28.30;89.80;;;;;;5062664;28;19920;-76
2022/04/12 12:40:36;;;;;;;;;;;28.10;89.60;;;;;;5065560;28;19924;-75
2022/04/12 12:43:04;;;;;;;;;;;27.60;88.80;;;;;;5057523;28;19920;-76
2022/04/12 12:45:33;;;;;;;;;;;27.40;88.40;;;;;;5065253;28;19920;-76
2022/04/12 12:47:59;;;;;;;;;;;27.80;88.50;;;;;;5067752;28;20007;-76
2022/04/12 12:50:27;;;;;;;;;;;27.10;88.20;;;;;;5067322;28;19943;-76
2022/04/12 12:53:00;;;;;;;;;;;26.90;89.00;;;;;;5067834;28;20001;-76
2022/04/12 12:55:28;;;;;;;;;;;27.80;90.40;;;;;;5067845;28;19920;-76
2022/04/12 12:58:01;;;;;;;;;;;28.60;90.50;;;;;;5067983;28;20050;-76
2022/04/12 13:00:29;;;;;;;;;;;29.10;88.30;;;;;;5067673;28;20015;-76
2022/04/12 13:03:21;;;;;;;;;;;29.10;87.60;;;;;;5064437;28;20001;-76
2022/04/12 13:05:56;;;;;;;;;;;29.60;88.80;;;;;;5048296;28;19925;-76
2022/04/12 13:08:24;;;;;;;;;;;29.50;87.80;;;;;;5029047;28;20047;-76
2022/04/12 13:10:51;;;;;;;;;;;28.40;88.70;;;;;;5027189;28;20477;-76
2022/04/12 13:13:17;;;;;;;;;;;28.20;90.00;;;;;;5053003;28;20502;-76
2022/04/12 13:15:45;;;;;;;;;;;28.00;90.30;;;;;;5059463;28;19974;-76
2022/04/12 13:18:12;;;;;;;;;;;28.20;90.00;;;;;;5046096;28;20291;-76
2022/04/12 13:20:41;;;;;;;;;;;28.20;90.00;;;;;;5038218;28;19921;-76
2022/04/12 13:23:08;;;;;;;;;;;28.30;90.30;;;;;;5042608;28;20478;-76
2022/04/12 13:25:34;;;;;;;;;;;28.10;89.20;;;;;;5027854;28;19932;-76
2022/04/12 13:28:07;;;;;;;;;;;27.90;89.70;;;;;;5045136;28;20286;-76
2022/04/12 13:30:37;;;;;;;;;;;27.80;89.50;;;;;;5044331;28;20007;-76
2022/04/12 13:33:03;;;;;;;;;;;28.00;90.30;;;;;;5027977;28;20336;-76
2022/04/12 13:35:30;;;;;;;;;;;28.00;89.30;;;;;;5045411;28;19920;-76
2022/04/12 13:37:57;;;;;;;;;;;27.80;89.40;;;;;;5027321;28;19921;-76
2022/04/12 13:40:29;;;;;;;;;;;27.60;89.10;;;;;;5044526;28;19967;-76
2022/04/12 13:42:56;;;;;;;;;;;27.40;93.20;;;;;;5059280;28;20027;-76
2022/04/12 13:45:22;;;;;;;;;;;28.20;93.90;;;;;;5064087;28;19920;-76
2022/04/12 13:47:49;;;;;;;;;;;28.70;94.60;;;;;;5068625;28;20288;-75
2022/04/12 13:50:16;;;;;;;;;;;28.20;93.90;;;;;;5070317;28;19970;-76
2022/04/12 13:52:43;;;;;;;;;;;27.60;93.10;;;;;;5067742;28;20006;-76
2022/04/12 13:55:09;;;;;;;;;;;27.30;91.90;;;;;;5061420;28;20368;-76
2022/04/12 13:57:37;;;;;;;;;;;27.50;91.50;;;;;;5059819;28;20144;-76
2022/04/12 14:00:05;;;;;;;;;;;27.70;91.30;;;;;;5058766;28;19921;-76
2022/04/12 14:02:32;;;;;;;;;;;28.00;91.90;;;;;;5066854;28;19920;-76
2022/04/12 14:05:01;;;;;;;;;;;28.10;91.70;;;;;;5068473;28;19942;-76
2022/04/12 14:07:28;;;;;;;;;;;27.70;91.50;;;;;;5065984;28;19931;-76
2022/04/12 14:09:55;;;;;;;;;;;27.30;90.90;;;;;;5051800;28;19924;-74
2022/04/12 14:12:31;;;;;;;;;;;27.00;91.00;;;;;;5068009;28;20333;-74
2022/04/12 14:14:58;;;;;;;;;;;26.90;91.90;;;;;;5065633;28;19921;-74
2022/04/12 14:17:26;;;;;;;;;;;27.10;91.80;;;;;;5067305;28;19968;-74
2022/04/12 14:19:53;;;;;;;;;;;27.40;91.60;;;;;;5063687;28;19927;-74
2022/04/12 14:22:20;;;;;;;;;;;27.50;92.00;;;;;;5059243;28;20073;-74
2022/04/12 14:24:46;;;;;;;;;;;27.30;91.60;;;;;;5059815;28;19943;-74
2022/04/12 14:27:13;;;;;;;;;;;27.30;91.50;;;;;;5057652;28;20401;-74
2022/04/12 14:29:40;;;;;;;;;;;27.10;91.50;;;;;;5065372;28;19924;-74
2022/04/12 14:32:07;;;;;;;;;;;26.90;91.20;;;;;;5060587;28;19926;-74
2022/04/12 14:34:36;;;;;;;;;;;27.10;91.50;;;;;;5072063;28;20230;-74